createdAt,value
2017-10-06T00:00:23.306Z,99.99
2017-10-06T00:01:03.882Z,99.99
2017-10-06T00:01:44.460Z,99.99
2017-10-06T00:02:25.043Z,99.99
2017-10-06T00:03:05.614Z,99.99
2017-10-06T00:03:46.196Z,99.99
2017-10-06T00:04:26.768Z,99.99
2017-10-06T00:05:07.348Z,99.99
2017-10-06T00:05:47.929Z,99.99
2017-10-06T00:06:28.509Z,99.99
2017-10-06T00:07:09.082Z,99.99
2017-10-06T00:07:49.660Z,99.99
2017-10-06T00:08:45.123Z,99.99
2017-10-06T00:09:25.702Z,99.99
2017-10-06T00:10:06.277Z,99.99
2017-10-06T00:10:46.859Z,99.99
2017-10-06T00:11:27.434Z,99.99
2017-10-06T00:12:08.026Z,99.99
2017-10-06T00:12:48.593Z,99.99
2017-10-06T00:13:29.176Z,99.99
2017-10-06T00:14:09.755Z,99.99
2017-10-06T00:14:50.337Z,99.99
2017-10-06T00:15:30.917Z,99.99
2017-10-06T00:16:11.495Z,99.99
2017-10-06T00:16:52.092Z,99.99
2017-10-06T00:17:32.671Z,99.99
2017-10-06T00:18:13.252Z,99.99
2017-10-06T00:18:53.825Z,99.99
2017-10-06T00:19:34.397Z,99.99
2017-10-06T00:20:14.976Z,99.99
2017-10-06T00:20:55.554Z,99.99
2017-10-06T00:21:36.138Z,99.99
2017-10-06T00:22:16.710Z,99.99
2017-10-06T00:22:57.293Z,99.99
2017-10-06T00:23:37.872Z,99.99
2017-10-06T00:24:18.448Z,99.99
2017-10-06T00:24:59.024Z,99.99
2017-10-06T00:25:39.613Z,99.99
2017-10-06T00:26:20.187Z,99.99
2017-10-06T00:27:00.758Z,99.99
2017-10-06T00:27:41.330Z,99.99
2017-10-06T00:28:21.910Z,99.99
2017-10-06T00:29:02.486Z,99.99
2017-10-06T00:29:43.056Z,99.99
2017-10-06T00:30:23.635Z,99.99
2017-10-06T00:31:04.211Z,99.99
2017-10-06T00:31:44.790Z,99.99
2017-10-06T00:32:25.372Z,99.99
2017-10-06T00:33:05.976Z,99.99
2017-10-06T00:33:46.535Z,99.99
2017-10-06T00:34:27.118Z,99.99
2017-10-06T00:35:07.687Z,99.99
2017-10-06T00:35:48.271Z,99.99
2017-10-06T00:36:28.852Z,99.99
2017-10-06T00:37:09.424Z,99.99
2017-10-06T00:37:49.996Z,99.99
2017-10-06T00:38:30.574Z,99.99
2017-10-06T00:39:11.146Z,99.99
2017-10-06T00:39:51.723Z,99.99
2017-10-06T00:40:32.305Z,99.99
2017-10-06T00:41:12.874Z,99.99
2017-10-06T00:41:53.455Z,99.99
2017-10-06T00:42:34.026Z,99.99
2017-10-06T00:43:14.604Z,99.99
2017-10-06T00:43:55.181Z,99.99
2017-10-06T00:44:35.762Z,99.99
2017-10-06T00:45:16.349Z,99.99
2017-10-06T00:45:56.924Z,99.99
2017-10-06T00:46:37.497Z,99.99
2017-10-06T00:47:18.068Z,99.99
2017-10-06T00:47:58.650Z,99.99
2017-10-06T00:48:39.225Z,99.99
2017-10-06T00:49:19.806Z,99.99
2017-10-06T00:50:00.379Z,99.99
2017-10-06T00:50:40.959Z,99.99
2017-10-06T00:51:21.547Z,99.99
2017-10-06T00:52:02.129Z,99.99
2017-10-06T00:52:42.699Z,99.99
2017-10-06T00:53:23.275Z,99.99
2017-10-06T00:54:03.845Z,99.99
2017-10-06T00:56:16.695Z,99.99
2017-10-06T00:56:57.266Z,99.99
2017-10-06T00:57:37.843Z,99.99
2017-10-06T00:58:18.420Z,99.99
2017-10-06T00:58:58.991Z,99.99
2017-10-06T00:59:39.579Z,99.99
2017-10-06T01:00:20.148Z,99.99
2017-10-06T01:01:00.724Z,99.99
2017-10-06T01:01:41.296Z,99.99
2017-10-06T01:02:21.876Z,99.99
2017-10-06T01:03:02.453Z,99.99
2017-10-06T01:03:43.037Z,99.99
2017-10-06T01:04:23.620Z,99.99
2017-10-06T01:05:04.193Z,99.99
2017-10-06T01:05:44.768Z,99.99
2017-10-06T01:06:25.339Z,99.99
2017-10-06T01:07:05.924Z,99.99
2017-10-06T01:07:46.493Z,99.99
2017-10-06T01:08:27.067Z,99.99
2017-10-06T01:09:07.648Z,99.99
2017-10-06T01:09:48.236Z,99.99
2017-10-06T01:10:28.817Z,99.99
2017-10-06T01:11:09.386Z,99.99
2017-10-06T01:11:49.957Z,99.99
2017-10-06T01:12:30.531Z,99.99
2017-10-06T01:13:11.114Z,99.99
2017-10-06T01:13:51.688Z,99.99
2017-10-06T01:14:32.262Z,99.99
2017-10-06T01:15:12.840Z,99.99
2017-10-06T01:15:53.424Z,99.99
2017-10-06T01:16:33.998Z,99.99
2017-10-06T01:17:14.585Z,99.99
2017-10-06T01:17:55.194Z,99.99
2017-10-06T01:18:35.773Z,99.99
2017-10-06T01:19:16.353Z,99.99
2017-10-06T01:19:56.916Z,99.99
2017-10-06T01:20:37.496Z,99.99
2017-10-06T01:21:18.076Z,99.99
2017-10-06T01:22:05.396Z,99.99
2017-10-06T01:22:45.973Z,99.99
2017-10-06T01:23:26.555Z,99.99
2017-10-06T01:24:07.135Z,99.99
2017-10-06T01:24:47.717Z,99.99
2017-10-06T01:25:28.299Z,99.99
2017-10-06T01:26:08.878Z,99.99
2017-10-06T01:26:49.460Z,99.99
2017-10-06T01:27:30.027Z,99.99
2017-10-06T01:28:10.604Z,99.99
2017-10-06T01:28:51.181Z,99.99
2017-10-06T01:29:31.754Z,99.99
2017-10-06T01:30:12.331Z,99.99
2017-10-06T01:30:52.909Z,99.99
2017-10-06T01:31:33.485Z,99.99
2017-10-06T01:32:14.064Z,99.99
2017-10-06T01:32:54.638Z,99.99
2017-10-06T01:33:35.216Z,99.99
2017-10-06T01:34:15.797Z,99.99
2017-10-06T01:34:56.368Z,99.99
2017-10-06T01:35:36.946Z,99.99
2017-10-06T01:36:18.694Z,99.99
2017-10-06T01:36:59.276Z,99.99
2017-10-06T01:37:39.853Z,99.99
2017-10-06T01:38:20.434Z,99.99
2017-10-06T01:39:01.006Z,99.99
2017-10-06T01:39:41.584Z,99.99
2017-10-06T01:40:22.165Z,99.99
2017-10-06T01:41:02.750Z,99.99
2017-10-06T01:41:43.333Z,99.99
2017-10-06T01:42:23.905Z,99.99
2017-10-06T01:43:04.487Z,99.99
2017-10-06T01:43:46.085Z,99.99
2017-10-06T01:44:26.662Z,99.99
2017-10-06T01:45:07.243Z,99.99
2017-10-06T01:45:47.826Z,99.99
2017-10-06T01:46:28.406Z,99.99
2017-10-06T01:47:08.980Z,99.99
2017-10-06T01:47:49.559Z,99.99
2017-10-06T01:48:30.139Z,99.99
2017-10-06T01:49:10.714Z,99.99
2017-10-06T01:49:51.284Z,99.99
2017-10-06T01:50:31.865Z,99.99
2017-10-06T01:51:12.444Z,99.99
2017-10-06T01:51:53.021Z,99.99
2017-10-06T01:52:33.599Z,99.99
2017-10-06T01:53:14.183Z,99.99
2017-10-06T01:53:54.769Z,99.99
2017-10-06T01:54:35.350Z,99.99
2017-10-06T01:55:15.925Z,99.99
2017-10-06T01:55:56.506Z,99.99
2017-10-06T01:56:37.089Z,99.99
2017-10-06T01:57:17.668Z,99.99
2017-10-06T01:57:58.252Z,99.99
2017-10-06T01:58:38.831Z,99.99
2017-10-06T01:59:19.410Z,99.99
2017-10-06T01:59:59.995Z,99.99
2017-10-06T02:00:40.582Z,99.99
2017-10-06T02:01:21.169Z,99.99
2017-10-06T02:02:01.748Z,99.99
2017-10-06T02:02:42.323Z,99.99
2017-10-06T02:03:22.915Z,99.99
2017-10-06T02:04:03.485Z,99.99
2017-10-06T02:04:44.064Z,99.99
2017-10-06T02:05:24.640Z,99.99
2017-10-06T02:06:05.221Z,99.99
2017-10-06T02:06:45.798Z,99.99
2017-10-06T02:07:26.385Z,99.99
2017-10-06T02:08:06.960Z,99.99
2017-10-06T02:08:47.545Z,99.99
2017-10-06T02:09:28.125Z,99.99
2017-10-06T02:10:08.701Z,99.99
2017-10-06T02:10:49.276Z,99.99
2017-10-06T02:11:29.862Z,99.99
2017-10-06T02:12:10.445Z,99.99
2017-10-06T02:12:51.017Z,99.99
2017-10-06T02:13:31.595Z,99.99
2017-10-06T02:14:12.167Z,99.99
2017-10-06T02:14:52.743Z,99.99
2017-10-06T02:15:33.319Z,99.99
2017-10-06T02:16:13.897Z,99.99
2017-10-06T02:16:54.477Z,99.99
2017-10-06T02:17:35.058Z,99.99
2017-10-06T02:18:15.633Z,99.99
2017-10-06T02:18:56.213Z,99.99
2017-10-06T02:19:36.813Z,99.99
2017-10-06T02:20:17.377Z,99.99
2017-10-06T02:20:57.959Z,99.99
2017-10-06T02:21:38.543Z,99.99
2017-10-06T02:22:19.116Z,99.99
2017-10-06T02:22:59.689Z,99.99
2017-10-06T02:23:40.267Z,99.99
2017-10-06T02:24:20.838Z,99.99
2017-10-06T02:25:01.417Z,99.99
2017-10-06T02:25:41.997Z,99.99
2017-10-06T02:26:22.569Z,99.99
2017-10-06T02:27:03.145Z,99.99
2017-10-06T02:27:43.722Z,99.99
2017-10-06T02:28:24.297Z,99.99
2017-10-06T02:29:04.868Z,99.99
2017-10-06T02:29:45.440Z,99.99
2017-10-06T02:30:26.020Z,99.99
2017-10-06T02:31:06.600Z,99.99
2017-10-06T02:31:47.176Z,99.99
2017-10-06T02:32:27.741Z,99.99
2017-10-06T02:33:08.328Z,99.99
2017-10-06T02:33:48.910Z,99.99
2017-10-06T02:34:29.487Z,99.99
2017-10-06T02:35:10.072Z,99.99
2017-10-06T02:35:51.273Z,99.99
2017-10-06T02:36:31.836Z,99.99
2017-10-06T02:37:12.422Z,99.99
2017-10-06T02:37:52.988Z,99.99
2017-10-06T02:38:33.568Z,99.99
2017-10-06T02:39:14.165Z,99.99
2017-10-06T02:39:54.744Z,99.99
2017-10-06T02:40:35.317Z,99.99
2017-10-06T02:41:15.894Z,99.99
2017-10-06T02:41:56.474Z,99.99
2017-10-06T02:42:37.054Z,99.99
2017-10-06T02:43:17.629Z,99.99
2017-10-06T02:43:58.205Z,99.99
2017-10-06T02:44:38.775Z,99.99
2017-10-06T02:45:19.360Z,99.99
2017-10-06T02:45:59.938Z,99.99
2017-10-06T02:46:40.519Z,99.99
2017-10-06T02:47:27.950Z,99.99
2017-10-06T02:48:08.525Z,99.99
2017-10-06T02:48:49.089Z,99.99
2017-10-06T02:49:29.665Z,99.99
2017-10-06T02:50:10.252Z,99.99
2017-10-06T02:51:05.335Z,99.99
2017-10-06T02:51:45.901Z,99.99
2017-10-06T02:52:26.493Z,99.99
2017-10-06T02:53:07.063Z,99.99
2017-10-06T02:53:47.640Z,99.99
2017-10-06T02:54:28.212Z,99.99
2017-10-06T02:55:08.793Z,99.99
2017-10-06T02:55:49.374Z,99.99
2017-10-06T02:56:29.952Z,99.99
2017-10-06T02:57:10.531Z,99.99
2017-10-06T02:57:51.109Z,99.99
2017-10-06T02:58:31.690Z,99.99
2017-10-06T02:59:12.266Z,99.99
2017-10-06T02:59:52.844Z,99.99
2017-10-06T03:00:33.428Z,99.99
2017-10-06T03:01:14.006Z,99.99
2017-10-06T03:01:54.574Z,99.99
2017-10-06T03:02:35.144Z,99.99
2017-10-06T03:03:15.727Z,99.99
2017-10-06T03:03:56.308Z,99.99
2017-10-06T03:04:36.892Z,99.99
2017-10-06T03:05:17.475Z,99.99
2017-10-06T03:05:58.037Z,99.99
2017-10-06T03:06:38.624Z,99.99
2017-10-06T03:07:19.189Z,99.99
2017-10-06T03:07:59.777Z,99.99
2017-10-06T03:08:40.356Z,99.99
2017-10-06T03:09:20.931Z,99.99
2017-10-06T03:10:01.505Z,99.99
2017-10-06T03:10:42.078Z,99.99
2017-10-06T03:11:22.654Z,99.99
2017-10-06T03:12:03.228Z,99.99
2017-10-06T03:12:46.580Z,99.99
2017-10-06T03:13:27.129Z,99.99
2017-10-06T03:14:07.706Z,99.99
2017-10-06T03:14:48.276Z,99.99
2017-10-06T03:15:28.850Z,99.99
2017-10-06T03:16:09.418Z,99.99
2017-10-06T03:16:49.990Z,99.99
2017-10-06T03:17:30.569Z,99.99
2017-10-06T03:18:11.138Z,99.99
2017-10-06T03:18:51.708Z,99.99
2017-10-06T03:19:32.283Z,99.99
2017-10-06T03:20:12.857Z,99.99
2017-10-06T03:20:53.440Z,99.99
2017-10-06T03:21:34.011Z,99.99
2017-10-06T03:22:14.665Z,99.99
2017-10-06T03:22:55.239Z,99.99
2017-10-06T03:23:35.824Z,99.99
2017-10-06T03:24:16.398Z,99.99
2017-10-06T03:24:57.109Z,99.99
2017-10-06T03:25:37.877Z,99.99
2017-10-06T03:26:18.481Z,99.99
2017-10-06T03:26:59.157Z,99.99
2017-10-06T03:27:39.821Z,99.99
2017-10-06T03:28:20.451Z,99.99
2017-10-06T03:29:01.106Z,99.99
2017-10-06T03:29:41.686Z,99.99
2017-10-06T03:30:22.450Z,99.99
2017-10-06T03:31:03.166Z,99.99
2017-10-06T03:31:43.833Z,99.99
2017-10-06T03:32:24.636Z,99.99
2017-10-06T03:33:05.356Z,99.99
2017-10-06T03:33:46.048Z,99.99
2017-10-06T03:34:26.626Z,99.99
2017-10-06T03:35:07.283Z,99.99
2017-10-06T03:35:47.996Z,99.99
2017-10-06T03:36:28.723Z,99.99
2017-10-06T03:37:09.392Z,99.99
2017-10-06T03:37:50.067Z,99.99
2017-10-06T03:38:30.811Z,99.99
2017-10-06T03:39:11.543Z,99.99
2017-10-06T03:39:52.234Z,99.99
2017-10-06T03:40:32.973Z,99.99
2017-10-06T03:41:13.666Z,99.99
2017-10-06T03:41:54.262Z,99.99
2017-10-06T03:42:34.994Z,99.99
2017-10-06T03:43:15.732Z,99.99
2017-10-06T03:43:56.400Z,99.99
2017-10-06T03:44:37.161Z,99.99
2017-10-06T03:45:18.012Z,99.99
2017-10-06T03:45:58.720Z,99.99
2017-10-06T03:46:39.361Z,99.99
2017-10-06T03:47:20.681Z,99.99
2017-10-06T03:48:01.260Z,99.99
2017-10-06T03:48:41.838Z,99.99
2017-10-06T03:49:24.952Z,99.99
2017-10-06T03:50:05.561Z,99.99
2017-10-06T03:50:46.953Z,99.99
2017-10-06T03:51:27.534Z,99.99
2017-10-06T03:52:08.104Z,99.99
2017-10-06T03:52:48.685Z,99.99
2017-10-06T03:53:29.262Z,99.99
2017-10-06T03:54:09.842Z,99.99
2017-10-06T03:54:50.409Z,99.99
2017-10-06T03:55:30.999Z,99.99
2017-10-06T03:56:11.566Z,99.99
2017-10-06T03:56:52.150Z,99.99
2017-10-06T03:57:32.722Z,99.99
2017-10-06T03:58:13.295Z,99.99
2017-10-06T03:58:53.860Z,99.99
2017-10-06T03:59:34.442Z,99.99
2017-10-06T04:00:15.009Z,99.99
2017-10-06T04:00:55.585Z,99.99
2017-10-06T04:01:36.163Z,99.99
2017-10-06T04:02:16.732Z,99.99
2017-10-06T04:02:57.309Z,99.99
2017-10-06T04:03:37.895Z,99.99
2017-10-06T04:04:18.474Z,99.99
2017-10-06T04:04:59.040Z,99.99
2017-10-06T04:05:39.632Z,99.99
2017-10-06T04:06:20.204Z,99.99
2017-10-06T04:07:00.778Z,99.99
2017-10-06T04:08:48.309Z,99.99
2017-10-06T04:09:28.894Z,99.99
2017-10-06T04:10:09.476Z,99.99
2017-10-06T04:10:50.049Z,99.99
2017-10-06T04:11:30.626Z,99.99
2017-10-06T04:12:11.212Z,99.99
2017-10-06T04:12:51.769Z,99.99
2017-10-06T04:13:32.347Z,99.99
2017-10-06T04:14:12.919Z,99.99
2017-10-06T04:14:53.506Z,99.99
2017-10-06T04:15:34.087Z,99.99
2017-10-06T04:16:14.660Z,99.99
2017-10-06T04:16:55.246Z,99.99
2017-10-06T04:17:35.819Z,99.99
2017-10-06T04:18:16.392Z,99.99
2017-10-06T04:18:56.971Z,99.99
2017-10-06T04:19:37.546Z,99.99
2017-10-06T04:20:18.121Z,99.99
2017-10-06T04:20:58.715Z,99.99
2017-10-06T04:21:39.286Z,99.99
2017-10-06T04:22:19.884Z,99.99
2017-10-06T04:23:00.459Z,99.99
2017-10-06T04:23:41.027Z,99.99
2017-10-06T04:24:21.604Z,99.99
2017-10-06T04:25:02.183Z,99.99
2017-10-06T04:25:42.766Z,99.99
2017-10-06T04:26:23.339Z,99.99
2017-10-06T04:27:03.923Z,99.99
2017-10-06T04:27:44.497Z,99.99
2017-10-06T04:28:25.070Z,99.99
2017-10-06T04:29:05.647Z,99.99
2017-10-06T04:29:46.229Z,99.99
2017-10-06T04:30:26.797Z,99.99
2017-10-06T04:31:07.514Z,99.99
2017-10-06T04:31:50.882Z,99.99
2017-10-06T04:32:31.464Z,99.99
2017-10-06T04:33:12.047Z,99.99
2017-10-06T04:33:52.624Z,99.99
2017-10-06T04:34:33.195Z,99.99
2017-10-06T04:35:13.789Z,99.99
2017-10-06T04:35:54.370Z,99.99
2017-10-06T04:36:34.949Z,99.99
2017-10-06T04:37:30.054Z,99.99
2017-10-06T04:38:10.629Z,99.99
2017-10-06T04:38:51.213Z,99.99
2017-10-06T04:39:31.790Z,99.99
2017-10-06T04:40:12.369Z,99.99
2017-10-06T04:40:52.933Z,99.99
2017-10-06T04:41:33.512Z,99.99
2017-10-06T04:42:14.087Z,99.99
2017-10-06T04:42:54.653Z,99.99
2017-10-06T04:43:35.244Z,99.99
2017-10-06T04:44:15.830Z,99.99
2017-10-06T04:44:56.416Z,99.99
2017-10-06T04:45:36.990Z,99.99
2017-10-06T04:46:17.568Z,99.99
2017-10-06T04:46:58.139Z,99.99
2017-10-06T04:47:38.718Z,99.99
2017-10-06T04:48:19.286Z,99.99
2017-10-06T04:48:59.858Z,99.99
2017-10-06T04:49:40.433Z,99.99
2017-10-06T04:50:21.013Z,99.99
2017-10-06T04:51:01.573Z,99.99
2017-10-06T04:53:19.519Z,99.99
2017-10-06T04:54:00.087Z,99.99
2017-10-06T04:54:40.655Z,99.99
2017-10-06T04:55:21.234Z,99.99
2017-10-06T04:56:01.815Z,99.99
2017-10-06T04:56:42.389Z,99.99
2017-10-06T04:57:22.973Z,99.99
2017-10-06T04:58:04.625Z,99.99
2017-10-06T04:58:45.205Z,99.99
2017-10-06T04:59:25.761Z,99.99
2017-10-06T05:00:06.320Z,99.99
2017-10-06T05:00:46.890Z,99.99
2017-10-06T05:01:27.467Z,99.99
2017-10-06T05:02:08.050Z,99.99
2017-10-06T05:02:48.631Z,99.99
2017-10-06T05:03:29.204Z,99.99
2017-10-06T05:04:09.788Z,99.99
2017-10-06T05:04:50.363Z,99.99
2017-10-06T05:05:30.934Z,99.99
2017-10-06T05:06:11.514Z,99.99
2017-10-06T05:06:52.084Z,99.99
2017-10-06T05:07:32.661Z,99.99
2017-10-06T05:08:13.236Z,99.99
2017-10-06T05:08:53.807Z,99.99
2017-10-06T05:09:34.380Z,99.99
2017-10-06T05:10:14.969Z,99.99
2017-10-06T05:10:55.544Z,99.99
2017-10-06T05:11:36.126Z,99.99
2017-10-06T05:12:16.698Z,99.99
2017-10-06T05:12:57.274Z,99.99
2017-10-06T05:13:37.838Z,99.99
2017-10-06T05:14:18.418Z,99.99
2017-10-06T05:14:58.988Z,99.99
2017-10-06T05:15:39.556Z,99.99
2017-10-06T05:16:20.133Z,99.99
2017-10-06T05:17:00.715Z,99.99
2017-10-06T05:17:41.291Z,99.99
2017-10-06T05:18:21.867Z,99.99
2017-10-06T05:19:02.447Z,99.99
2017-10-06T05:19:43.024Z,99.99
2017-10-06T05:20:23.593Z,99.99
2017-10-06T05:21:04.173Z,99.99
2017-10-06T05:21:44.752Z,99.99
2017-10-06T05:22:25.320Z,99.99
2017-10-06T05:23:05.889Z,99.99
2017-10-06T05:23:46.469Z,99.99
2017-10-06T05:24:27.060Z,99.99
2017-10-06T05:25:07.639Z,99.99
2017-10-06T05:25:48.206Z,99.99
2017-10-06T05:26:43.571Z,99.99
2017-10-06T05:27:24.135Z,99.99
2017-10-06T05:28:04.710Z,99.99
2017-10-06T05:28:45.279Z,99.99
2017-10-06T05:29:25.860Z,99.99
2017-10-06T05:30:06.428Z,99.99
2017-10-06T05:30:46.996Z,99.99
2017-10-06T05:31:27.569Z,99.99
2017-10-06T05:32:08.127Z,99.99
2017-10-06T05:32:48.704Z,99.99
2017-10-06T05:33:29.273Z,99.99
2017-10-06T05:34:09.856Z,99.99
2017-10-06T05:34:50.434Z,99.99
2017-10-06T05:35:31.004Z,99.99
2017-10-06T05:36:11.581Z,99.99
2017-10-06T05:36:52.148Z,99.99
2017-10-06T05:37:32.716Z,99.99
2017-10-06T05:39:33.445Z,99.99
2017-10-06T05:40:14.018Z,99.99
2017-10-06T05:40:54.593Z,99.99
2017-10-06T05:41:35.164Z,99.99
2017-10-06T05:42:15.736Z,99.99
2017-10-06T05:42:56.313Z,99.99
2017-10-06T05:43:36.898Z,99.99
2017-10-06T05:44:17.454Z,99.99
2017-10-06T05:44:58.033Z,99.99
2017-10-06T05:45:38.602Z,99.99
2017-10-06T05:46:19.181Z,99.99
2017-10-06T05:46:59.755Z,99.99
2017-10-06T05:48:57.483Z,99.99
2017-10-06T05:49:38.049Z,99.99
2017-10-06T05:50:18.616Z,99.99
2017-10-06T05:50:59.179Z,99.99
2017-10-06T05:53:11.978Z,99.99
2017-10-06T05:53:52.542Z,99.99
2017-10-06T05:54:33.114Z,99.99
2017-10-06T05:55:13.683Z,99.99
2017-10-06T05:55:54.260Z,99.99
2017-10-06T05:56:34.837Z,99.99
2017-10-06T05:57:15.415Z,99.99
2017-10-06T05:57:55.996Z,99.99
2017-10-06T05:58:36.562Z,99.99
2017-10-06T05:59:17.140Z,99.99
2017-10-06T05:59:57.716Z,99.99
2017-10-06T06:00:38.281Z,99.99
2017-10-06T06:01:18.860Z,99.99
2017-10-06T06:01:59.414Z,99.99
2017-10-06T06:02:39.994Z,99.99
2017-10-06T06:03:35.492Z,99.99
2017-10-06T06:04:16.062Z,99.99
2017-10-06T06:04:56.645Z,99.99
2017-10-06T06:05:37.214Z,99.99
2017-10-06T06:06:17.793Z,99.99
2017-10-06T06:06:58.369Z,99.99
2017-10-06T06:07:38.944Z,99.99
2017-10-06T06:08:19.508Z,99.99
2017-10-06T06:09:00.100Z,99.99
2017-10-06T06:09:40.681Z,99.99
2017-10-06T06:10:21.255Z,99.99
2017-10-06T06:11:01.821Z,99.99
2017-10-06T06:11:42.392Z,99.99
2017-10-06T06:12:22.974Z,99.99
2017-10-06T06:13:03.547Z,99.99
2017-10-06T06:13:44.117Z,99.99
2017-10-06T06:14:24.682Z,99.99
2017-10-06T06:15:05.261Z,99.99
2017-10-06T06:15:45.840Z,99.99
2017-10-06T06:16:26.419Z,99.99
2017-10-06T06:17:07.000Z,99.99
2017-10-06T06:17:47.581Z,99.99
2017-10-06T06:18:28.148Z,99.99
2017-10-06T06:19:08.718Z,99.99
2017-10-06T06:19:49.298Z,99.99
2017-10-06T06:20:29.870Z,99.99
2017-10-06T06:21:10.441Z,99.99
2017-10-06T06:21:51.018Z,99.99
2017-10-06T06:22:31.602Z,99.99
2017-10-06T06:23:12.190Z,99.99
2017-10-06T06:25:30.153Z,99.99
2017-10-06T06:26:10.732Z,99.99
2017-10-06T06:26:51.302Z,99.99
2017-10-06T06:27:31.871Z,99.99
2017-10-06T06:28:12.446Z,99.99
2017-10-06T06:28:53.016Z,99.99
2017-10-06T06:29:33.587Z,99.99
2017-10-06T06:30:14.158Z,99.99
2017-10-06T06:30:54.726Z,99.99
2017-10-06T06:31:35.297Z,99.99
2017-10-06T06:32:15.871Z,99.99
2017-10-06T06:32:56.436Z,99.99
2017-10-06T06:33:37.021Z,99.99
2017-10-06T06:34:17.584Z,99.99
2017-10-06T06:34:58.155Z,99.99
2017-10-06T06:35:38.729Z,99.99
2017-10-06T06:36:19.309Z,99.99
2017-10-06T06:36:59.880Z,99.99
2017-10-06T06:37:40.454Z,99.99
2017-10-06T06:38:21.021Z,99.99
2017-10-06T06:39:01.589Z,99.99
2017-10-06T06:39:42.162Z,99.99
2017-10-06T06:40:22.731Z,99.99
2017-10-06T06:41:03.307Z,99.99
2017-10-06T06:41:43.882Z,99.99
2017-10-06T06:42:24.482Z,99.99
2017-10-06T06:43:05.055Z,99.99
2017-10-06T06:43:45.635Z,99.99
2017-10-06T06:44:26.215Z,99.99
2017-10-06T06:45:06.785Z,99.99
2017-10-06T06:45:47.384Z,99.99
2017-10-06T06:46:27.978Z,99.99
2017-10-06T06:47:08.564Z,99.99
2017-10-06T06:47:49.139Z,99.99
2017-10-06T06:48:29.718Z,99.99
2017-10-06T06:49:25.122Z,99.99
2017-10-06T06:50:05.696Z,99.99
2017-10-06T06:50:46.267Z,99.99
2017-10-06T06:51:26.854Z,99.99
2017-10-06T06:52:07.433Z,99.99
2017-10-06T06:52:48.028Z,99.99
2017-10-06T06:53:28.592Z,99.99
2017-10-06T06:54:09.183Z,99.99
2017-10-06T06:54:49.752Z,99.99
2017-10-06T06:55:30.320Z,99.99
2017-10-06T06:56:10.892Z,99.99
2017-10-06T06:56:51.469Z,99.99
2017-10-06T06:57:32.044Z,99.99
2017-10-06T06:58:12.623Z,99.99
2017-10-06T06:58:53.194Z,99.99
2017-10-06T06:59:33.773Z,99.99
2017-10-06T07:00:14.351Z,99.99
2017-10-06T07:00:54.918Z,99.99
2017-10-06T07:01:35.500Z,99.99
2017-10-06T07:02:16.071Z,99.99
2017-10-06T07:02:56.642Z,99.99
2017-10-06T07:03:37.210Z,99.99
2017-10-06T07:04:17.792Z,99.99
2017-10-06T07:04:58.380Z,99.99
2017-10-06T07:05:38.952Z,99.99
2017-10-06T07:06:19.517Z,99.99
2017-10-06T07:07:00.106Z,99.99
2017-10-06T07:07:40.675Z,99.99
2017-10-06T07:08:21.254Z,99.99
2017-10-06T07:09:01.867Z,99.99
2017-10-06T07:09:42.451Z,99.99
2017-10-06T07:10:23.033Z,99.99
2017-10-06T07:11:03.609Z,99.99
2017-10-06T07:11:44.194Z,99.99
2017-10-06T07:12:24.763Z,99.99
2017-10-06T07:13:05.346Z,99.99
2017-10-06T07:13:45.911Z,99.99
2017-10-06T07:14:26.488Z,99.99
2017-10-06T07:15:07.055Z,99.99
2017-10-06T07:15:47.621Z,99.37
2017-10-06T07:16:28.205Z,99.55
2017-10-06T07:17:08.786Z,98.7
2017-10-06T07:17:49.355Z,98.7
2017-10-06T07:18:29.937Z,99.55
2017-10-06T07:19:10.517Z,99.46
2017-10-06T07:19:51.097Z,98.22
2017-10-06T07:20:31.666Z,97.56
2017-10-06T07:21:12.256Z,97.56
2017-10-06T07:21:52.837Z,97.46
2017-10-06T07:22:33.422Z,97.65
2017-10-06T07:23:13.994Z,97.46
2017-10-06T07:23:54.579Z,97.17
2017-10-06T07:24:35.167Z,97.27
2017-10-06T07:25:15.731Z,97.46
2017-10-06T07:25:56.306Z,97.36
2017-10-06T07:26:36.873Z,97.17
2017-10-06T07:27:17.460Z,97.17
2017-10-06T07:27:58.037Z,97.08
2017-10-06T07:28:38.613Z,96.8
2017-10-06T07:30:56.557Z,96.75
2017-10-06T07:31:37.141Z,96.12
2017-10-06T07:32:17.713Z,96.56
2017-10-06T07:32:58.283Z,97.41
2017-10-06T07:33:38.857Z,96.65
2017-10-06T07:34:19.424Z,95.89
2017-10-06T07:34:59.991Z,95.7
2017-10-06T07:35:40.568Z,94.93
2017-10-06T07:36:36.158Z,95.79
2017-10-06T07:37:16.752Z,95.32
2017-10-06T07:37:57.328Z,95.32
2017-10-06T07:38:37.897Z,94.93
2017-10-06T07:39:18.478Z,94.32
2017-10-06T07:39:59.049Z,93.93
2017-10-06T07:40:39.628Z,92.88
2017-10-06T07:42:57.556Z,91.93
2017-10-06T07:43:38.135Z,92.41
2017-10-06T07:44:18.708Z,93.93
2017-10-06T07:44:59.281Z,92.41
2017-10-06T07:45:39.861Z,91.17
2017-10-06T07:46:20.439Z,91.17
2017-10-06T07:47:01.058Z,92.22
2017-10-06T07:47:41.633Z,91.83
2017-10-06T07:48:22.215Z,91.6
2017-10-06T07:49:02.785Z,90.93
2017-10-06T07:49:43.371Z,91.55
2017-10-06T07:50:23.928Z,91.74
2017-10-06T07:51:04.503Z,91.22
2017-10-06T07:51:45.084Z,91.03
2017-10-06T07:52:25.680Z,91.46
2017-10-06T07:53:06.236Z,90.88
2017-10-06T07:53:46.807Z,91.55
2017-10-06T07:54:27.376Z,90.88
2017-10-06T07:55:07.960Z,89.36
2017-10-06T07:56:03.310Z,88.5
2017-10-06T07:56:43.892Z,87.93
2017-10-06T07:57:24.467Z,88.5
2017-10-06T07:58:05.035Z,88.35
2017-10-06T07:58:45.612Z,87.02
2017-10-06T07:59:26.176Z,86.98
2017-10-06T08:00:06.745Z,86.06
2017-10-06T08:00:47.326Z,86.16
2017-10-06T08:01:27.892Z,86.11
2017-10-06T08:02:08.493Z,86.49
2017-10-06T08:02:49.061Z,86.98
2017-10-06T08:03:29.659Z,87.68
2017-10-06T08:04:10.208Z,86.73
2017-10-06T08:04:50.785Z,86.06
2017-10-06T08:05:31.359Z,85.87
2017-10-06T08:06:11.932Z,84.48
2017-10-06T08:06:52.511Z,83.13
2017-10-06T08:07:33.103Z,80.3
2017-10-06T08:08:13.680Z,76.14
2017-10-06T08:08:54.259Z,73.72
2017-10-06T08:09:34.832Z,71.33
2017-10-06T08:10:15.408Z,71.08
2017-10-06T08:10:55.976Z,70.64
2017-10-06T08:11:36.554Z,70.28
2017-10-06T08:12:17.128Z,70.81
2017-10-06T08:12:57.705Z,71.42
2017-10-06T08:13:38.290Z,71.55
2017-10-06T08:14:18.873Z,72.73
2017-10-06T08:14:59.443Z,71.39
2017-10-06T08:15:40.027Z,70.43
2017-10-06T08:16:20.603Z,71.01
2017-10-06T08:17:01.185Z,71.45
2017-10-06T08:17:41.770Z,72.79
2017-10-06T08:18:22.359Z,73.36
2017-10-06T08:19:02.940Z,73.65
2017-10-06T08:19:43.516Z,73.94
2017-10-06T08:20:24.088Z,73.75
2017-10-06T08:21:04.661Z,73.36
2017-10-06T08:21:45.241Z,72.98
2017-10-06T08:22:25.826Z,74.09
2017-10-06T08:23:06.409Z,74.32
2017-10-06T08:23:46.987Z,74.32
2017-10-06T08:24:27.567Z,74.57
2017-10-06T08:25:08.132Z,74.99
2017-10-06T08:25:48.766Z,74.32
2017-10-06T08:26:29.347Z,74.19
2017-10-06T08:27:09.921Z,74.9
2017-10-06T08:27:50.485Z,74.41
2017-10-06T08:28:31.067Z,73.55
2017-10-06T08:29:11.647Z,73.46
2017-10-06T08:29:52.225Z,73.46
2017-10-06T08:30:32.813Z,74.04
2017-10-06T08:31:13.372Z,73.36
2017-10-06T08:31:53.956Z,73.08
2017-10-06T08:32:34.529Z,72.98
2017-10-06T08:33:15.112Z,73.65
2017-10-06T08:33:55.671Z,71.93
2017-10-06T08:34:36.252Z,72.37
2017-10-06T08:35:16.836Z,74.28
2017-10-06T08:35:57.416Z,74.95
2017-10-06T08:36:38.001Z,73.11
2017-10-06T08:37:18.572Z,72.19
2017-10-06T08:37:59.148Z,68.62
2017-10-06T08:38:39.722Z,67.09
2017-10-06T08:39:20.303Z,66.55
2017-10-06T08:40:00.894Z,64.82
2017-10-06T08:40:42.326Z,64.95
2017-10-06T08:41:22.913Z,63.32
2017-10-06T08:42:03.496Z,62.29
2017-10-06T08:42:44.070Z,60.82
2017-10-06T08:44:36.715Z,55.83
2017-10-06T08:45:17.285Z,54.75
2017-10-06T08:45:57.884Z,55.98
2017-10-06T08:46:38.471Z,56.43
2017-10-06T08:47:19.046Z,57.22
2017-10-06T08:47:59.615Z,56.1
2017-10-06T08:48:40.188Z,55.78
2017-10-06T08:49:20.770Z,56.49
2017-10-06T08:50:02.180Z,58.29
2017-10-06T08:50:43.291Z,59.8
2017-10-06T08:51:23.873Z,61.05
2017-10-06T08:52:04.464Z,60.14
2017-10-06T08:52:45.048Z,57.99
2017-10-06T08:53:25.634Z,55.81
2017-10-06T08:54:06.221Z,55.01
2017-10-06T08:54:46.803Z,55.9
2017-10-06T08:55:27.391Z,55.87
2017-10-06T08:56:07.974Z,53.81
2017-10-06T08:58:00.621Z,52.37
2017-10-06T08:58:41.193Z,52.15
2017-10-06T08:59:21.784Z,51.98
2017-10-06T09:00:02.374Z,50.76
2017-10-06T09:00:42.953Z,51.43
2017-10-06T09:01:38.261Z,55.05